sensor_id;sensor_type;location;lat;lon;timestamp;P1;durP1;ratioP1;P2;durP2;ratioP2
85131;SDS011;75493;51.772;19.464;2024-02-15T00:00:27;23.33;;;12.93;;
85131;SDS011;75493;51.772;19.464;2024-02-15T00:02:53;26.15;;;13.23;;
85131;SDS011;75493;51.772;19.464;2024-02-15T00:05:19;24.33;;;12.77;;
85131;SDS011;75493;51.772;19.464;2024-02-15T00:07:45;25.58;;;12.45;;
85131;SDS011;75493;51.772;19.464;2024-02-15T00:10:14;24.83;;;12.35;;
85131;SDS011;75493;51.772;19.464;2024-02-15T00:12:40;25.38;;;12.35;;
85131;SDS011;75493;51.772;19.464;2024-02-15T00:15:06;25.73;;;13.00;;
85131;SDS011;75493;51.772;19.464;2024-02-15T00:17:33;28.25;;;12.75;;
85131;SDS011;75493;51.772;19.464;2024-02-15T00:20:00;26.10;;;12.25;;
85131;SDS011;75493;51.772;19.464;2024-02-15T00:22:28;23.65;;;12.13;;
85131;SDS011;75493;51.772;19.464;2024-02-15T00:24:54;23.35;;;11.90;;
85131;SDS011;75493;51.772;19.464;2024-02-15T00:27:20;21.65;;;11.98;;
85131;SDS011;75493;51.772;19.464;2024-02-15T00:29:46;23.38;;;12.85;;
85131;SDS011;75493;51.772;19.464;2024-02-15T00:32:12;23.60;;;12.40;;
85131;SDS011;75493;51.772;19.464;2024-02-15T00:34:38;22.77;;;12.13;;
85131;SDS011;75493;51.772;19.464;2024-02-15T00:37:04;23.73;;;12.85;;
85131;SDS011;75493;51.772;19.464;2024-02-15T00:39:31;22.30;;;12.88;;
85131;SDS011;75493;51.772;19.464;2024-02-15T00:41:57;26.58;;;12.05;;
85131;SDS011;75493;51.772;19.464;2024-02-15T00:44:25;23.70;;;13.30;;
85131;SDS011;75493;51.772;19.464;2024-02-15T00:46:51;23.02;;;12.75;;
85131;SDS011;75493;51.772;19.464;2024-02-15T00:49:17;22.77;;;12.60;;
85131;SDS011;75493;51.772;19.464;2024-02-15T00:51:45;22.05;;;11.38;;
85131;SDS011;75493;51.772;19.464;2024-02-15T00:54:11;26.50;;;12.88;;
85131;SDS011;75493;51.772;19.464;2024-02-15T00:56:37;23.33;;;11.90;;
85131;SDS011;75493;51.772;19.464;2024-02-15T00:59:03;21.88;;;12.18;;
85131;SDS011;75493;51.772;19.464;2024-02-15T01:01:30;21.88;;;12.05;;
85131;SDS011;75493;51.772;19.464;2024-02-15T01:03:56;21.65;;;11.60;;
85131;SDS011;75493;51.772;19.464;2024-02-15T01:06:22;22.55;;;11.52;;
85131;SDS011;75493;51.772;19.464;2024-02-15T01:08:48;22.35;;;11.75;;
85131;SDS011;75493;51.772;19.464;2024-02-15T01:11:14;22.52;;;10.90;;
85131;SDS011;75493;51.772;19.464;2024-02-15T01:13:40;23.05;;;12.95;;
85131;SDS011;75493;51.772;19.464;2024-02-15T01:16:06;24.10;;;12.35;;
85131;SDS011;75493;51.772;19.464;2024-02-15T01:18:33;24.17;;;12.32;;
85131;SDS011;75493;51.772;19.464;2024-02-15T01:20:59;23.40;;;12.55;;
85131;SDS011;75493;51.772;19.464;2024-02-15T01:23:25;26.17;;;13.82;;
85131;SDS011;75493;51.772;19.464;2024-02-15T01:25:52;22.67;;;12.60;;
85131;SDS011;75493;51.772;19.464;2024-02-15T01:28:18;23.33;;;13.32;;
85131;SDS011;75493;51.772;19.464;2024-02-15T01:30:44;26.95;;;12.63;;
85131;SDS011;75493;51.772;19.464;2024-02-15T01:33:11;21.27;;;13.00;;
85131;SDS011;75493;51.772;19.464;2024-02-15T01:35:37;26.35;;;13.82;;
85131;SDS011;75493;51.772;19.464;2024-02-15T01:38:03;22.30;;;13.02;;
85131;SDS011;75493;51.772;19.464;2024-02-15T01:40:29;21.50;;;12.68;;
85131;SDS011;75493;51.772;19.464;2024-02-15T01:42:55;25.48;;;13.68;;
85131;SDS011;75493;51.772;19.464;2024-02-15T01:45:23;26.98;;;13.77;;
85131;SDS011;75493;51.772;19.464;2024-02-15T01:47:50;29.70;;;13.32;;
85131;SDS011;75493;51.772;19.464;2024-02-15T01:50:16;26.25;;;14.57;;
85131;SDS011;75493;51.772;19.464;2024-02-15T01:52:44;25.40;;;13.98;;
85131;SDS011;75493;51.772;19.464;2024-02-15T01:55:12;27.17;;;13.57;;
85131;SDS011;75493;51.772;19.464;2024-02-15T01:57:39;24.70;;;13.52;;
85131;SDS011;75493;51.772;19.464;2024-02-15T02:00:06;26.23;;;14.88;;
85131;SDS011;75493;51.772;19.464;2024-02-15T02:02:34;27.20;;;14.38;;
85131;SDS011;75493;51.772;19.464;2024-02-15T02:05:00;28.15;;;15.10;;
85131;SDS011;75493;51.772;19.464;2024-02-15T02:07:26;33.67;;;15.75;;
85131;SDS011;75493;51.772;19.464;2024-02-15T02:09:51;28.60;;;15.88;;
85131;SDS011;75493;51.772;19.464;2024-02-15T02:12:17;27.10;;;15.55;;
85131;SDS011;75493;51.772;19.464;2024-02-15T02:14:43;28.33;;;15.73;;
85131;SDS011;75493;51.772;19.464;2024-02-15T02:17:13;31.08;;;16.02;;
85131;SDS011;75493;51.772;19.464;2024-02-15T02:19:39;27.80;;;16.25;;
85131;SDS011;75493;51.772;19.464;2024-02-15T02:22:06;33.63;;;16.33;;
85131;SDS011;75493;51.772;19.464;2024-02-15T02:24:34;30.45;;;16.33;;
85131;SDS011;75493;51.772;19.464;2024-02-15T02:27:03;30.60;;;17.10;;
85131;SDS011;75493;51.772;19.464;2024-02-15T02:29:30;31.65;;;17.83;;
85131;SDS011;75493;51.772;19.464;2024-02-15T02:31:56;30.40;;;16.00;;
85131;SDS011;75493;51.772;19.464;2024-02-15T02:34:22;32.92;;;17.10;;
85131;SDS011;75493;51.772;19.464;2024-02-15T02:36:49;34.33;;;18.08;;
85131;SDS011;75493;51.772;19.464;2024-02-15T02:39:16;34.03;;;17.10;;
85131;SDS011;75493;51.772;19.464;2024-02-15T02:41:42;31.95;;;17.60;;
85131;SDS011;75493;51.772;19.464;2024-02-15T02:44:08;34.10;;;16.98;;
85131;SDS011;75493;51.772;19.464;2024-02-15T02:46:34;33.08;;;17.23;;
85131;SDS011;75493;51.772;19.464;2024-02-15T02:49:00;34.92;;;17.40;;
85131;SDS011;75493;51.772;19.464;2024-02-15T02:51:26;33.05;;;16.63;;
85131;SDS011;75493;51.772;19.464;2024-02-15T02:53:52;34.47;;;17.23;;
85131;SDS011;75493;51.772;19.464;2024-02-15T02:56:18;29.40;;;17.40;;
85131;SDS011;75493;51.772;19.464;2024-02-15T02:58:44;31.80;;;16.58;;
85131;SDS011;75493;51.772;19.464;2024-02-15T03:01:10;32.55;;;16.67;;
85131;SDS011;75493;51.772;19.464;2024-02-15T03:03:36;35.75;;;20.95;;
85131;SDS011;75493;51.772;19.464;2024-02-15T03:06:03;34.60;;;18.95;;
85131;SDS011;75493;51.772;19.464;2024-02-15T03:08:29;31.48;;;17.98;;
85131;SDS011;75493;51.772;19.464;2024-02-15T03:10:55;28.70;;;16.30;;
85131;SDS011;75493;51.772;19.464;2024-02-15T03:13:21;30.23;;;17.83;;
85131;SDS011;75493;51.772;19.464;2024-02-15T03:15:48;29.50;;;16.50;;
85131;SDS011;75493;51.772;19.464;2024-02-15T03:18:15;31.17;;;17.58;;
85131;SDS011;75493;51.772;19.464;2024-02-15T03:20:41;33.42;;;17.90;;
85131;SDS011;75493;51.772;19.464;2024-02-15T03:23:07;31.50;;;17.00;;
85131;SDS011;75493;51.772;19.464;2024-02-15T03:25:33;30.35;;;16.35;;
85131;SDS011;75493;51.772;19.464;2024-02-15T03:27:59;30.08;;;16.90;;
85131;SDS011;75493;51.772;19.464;2024-02-15T03:30:30;32.15;;;17.13;;
85131;SDS011;75493;51.772;19.464;2024-02-15T03:32:57;29.35;;;16.70;;
85131;SDS011;75493;51.772;19.464;2024-02-15T03:35:24;28.27;;;16.50;;
85131;SDS011;75493;51.772;19.464;2024-02-15T03:37:50;29.52;;;18.42;;
85131;SDS011;75493;51.772;19.464;2024-02-15T03:40:16;30.13;;;17.10;;
85131;SDS011;75493;51.772;19.464;2024-02-15T03:42:43;33.25;;;18.02;;
85131;SDS011;75493;51.772;19.464;2024-02-15T03:45:09;34.33;;;18.38;;
85131;SDS011;75493;51.772;19.464;2024-02-15T03:47:36;28.73;;;17.55;;
85131;SDS011;75493;51.772;19.464;2024-02-15T03:50:02;32.60;;;17.08;;
85131;SDS011;75493;51.772;19.464;2024-02-15T03:52:29;31.13;;;18.08;;
85131;SDS011;75493;51.772;19.464;2024-02-15T03:54:56;31.33;;;17.42;;
85131;SDS011;75493;51.772;19.464;2024-02-15T03:57:27;32.38;;;17.50;;
85131;SDS011;75493;51.772;19.464;2024-02-15T03:59:54;30.42;;;16.90;;
85131;SDS011;75493;51.772;19.464;2024-02-15T04:02:22;30.38;;;16.23;;
85131;SDS011;75493;51.772;19.464;2024-02-15T04:04:48;32.72;;;17.45;;
85131;SDS011;75493;51.772;19.464;2024-02-15T04:07:17;32.10;;;18.15;;
85131;SDS011;75493;51.772;19.464;2024-02-15T04:09:44;82.30;;;56.10;;
85131;SDS011;75493;51.772;19.464;2024-02-15T04:12:10;83.82;;;63.28;;
85131;SDS011;75493;51.772;19.464;2024-02-15T04:14:36;202.13;;;125.05;;
85131;SDS011;75493;51.772;19.464;2024-02-15T04:17:03;446.63;;;253.50;;
85131;SDS011;75493;51.772;19.464;2024-02-15T04:19:29;571.65;;;296.52;;
85131;SDS011;75493;51.772;19.464;2024-02-15T04:21:55;356.20;;;164.77;;
85131;SDS011;75493;51.772;19.464;2024-02-15T04:24:21;814.30;;;431.65;;
85131;SDS011;75493;51.772;19.464;2024-02-15T04:26:48;956.53;;;547.20;;
85131;SDS011;75493;51.772;19.464;2024-02-15T04:29:14;930.15;;;605.90;;
85131;SDS011;75493;51.772;19.464;2024-02-15T04:31:40;404.98;;;235.43;;
85131;SDS011;75493;51.772;19.464;2024-02-15T04:34:08;305.23;;;215.90;;
85131;SDS011;75493;51.772;19.464;2024-02-15T04:36:35;170.32;;;102.82;;
85131;SDS011;75493;51.772;19.464;2024-02-15T04:39:01;73.47;;;40.63;;
85131;SDS011;75493;51.772;19.464;2024-02-15T04:41:27;46.10;;;25.33;;
85131;SDS011;75493;51.772;19.464;2024-02-15T04:43:54;32.63;;;18.95;;
85131;SDS011;75493;51.772;19.464;2024-02-15T04:46:20;35.20;;;17.63;;
85131;SDS011;75493;51.772;19.464;2024-02-15T04:48:49;27.88;;;16.77;;
85131;SDS011;75493;51.772;19.464;2024-02-15T04:51:16;36.80;;;18.02;;
85131;SDS011;75493;51.772;19.464;2024-02-15T04:53:45;29.38;;;16.77;;
85131;SDS011;75493;51.772;19.464;2024-02-15T04:56:11;29.05;;;15.75;;
85131;SDS011;75493;51.772;19.464;2024-02-15T04:58:41;29.63;;;16.55;;
85131;SDS011;75493;51.772;19.464;2024-02-15T05:01:16;31.23;;;16.75;;
85131;SDS011;75493;51.772;19.464;2024-02-15T05:03:43;28.73;;;15.75;;
85131;SDS011;75493;51.772;19.464;2024-02-15T05:06:09;30.27;;;17.08;;
85131;SDS011;75493;51.772;19.464;2024-02-15T05:08:37;34.25;;;18.00;;
85131;SDS011;75493;51.772;19.464;2024-02-15T05:11:07;31.35;;;17.67;;
85131;SDS011;75493;51.772;19.464;2024-02-15T05:13:38;31.73;;;17.67;;
85131;SDS011;75493;51.772;19.464;2024-02-15T05:16:04;31.85;;;17.83;;
85131;SDS011;75493;51.772;19.464;2024-02-15T05:18:30;36.00;;;19.85;;
85131;SDS011;75493;51.772;19.464;2024-02-15T05:20:56;30.35;;;18.05;;
85131;SDS011;75493;51.772;19.464;2024-02-15T05:23:22;30.58;;;17.85;;
85131;SDS011;75493;51.772;19.464;2024-02-15T05:25:48;32.92;;;18.17;;
85131;SDS011;75493;51.772;19.464;2024-02-15T05:28:14;32.95;;;18.48;;
85131;SDS011;75493;51.772;19.464;2024-02-15T05:30:42;30.55;;;18.10;;
85131;SDS011;75493;51.772;19.464;2024-02-15T05:33:09;36.97;;;19.25;;
85131;SDS011;75493;51.772;19.464;2024-02-15T05:35:35;37.08;;;19.55;;
85131;SDS011;75493;51.772;19.464;2024-02-15T05:38:04;34.25;;;19.10;;
85131;SDS011;75493;51.772;19.464;2024-02-15T05:40:31;31.05;;;17.95;;
85131;SDS011;75493;51.772;19.464;2024-02-15T05:42:57;29.48;;;18.15;;
85131;SDS011;75493;51.772;19.464;2024-02-15T05:47:49;33.83;;;19.15;;
85131;SDS011;75493;51.772;19.464;2024-02-15T05:50:15;33.03;;;19.05;;
85131;SDS011;75493;51.772;19.464;2024-02-15T05:52:45;36.05;;;18.23;;
85131;SDS011;75493;51.772;19.464;2024-02-15T05:55:11;30.70;;;17.52;;
85131;SDS011;75493;51.772;19.464;2024-02-15T05:57:41;33.72;;;18.13;;
85131;SDS011;75493;51.772;19.464;2024-02-15T06:00:07;33.10;;;18.17;;
85131;SDS011;75493;51.772;19.464;2024-02-15T06:02:33;33.55;;;19.05;;
85131;SDS011;75493;51.772;19.464;2024-02-15T06:04:59;32.53;;;18.65;;
85131;SDS011;75493;51.772;19.464;2024-02-15T06:07:28;33.47;;;18.45;;
85131;SDS011;75493;51.772;19.464;2024-02-15T06:09:56;33.17;;;19.05;;
85131;SDS011;75493;51.772;19.464;2024-02-15T06:12:22;32.60;;;19.20;;
85131;SDS011;75493;51.772;19.464;2024-02-15T06:14:48;33.20;;;18.02;;
85131;SDS011;75493;51.772;19.464;2024-02-15T06:17:14;34.00;;;19.77;;
85131;SDS011;75493;51.772;19.464;2024-02-15T06:19:40;34.80;;;19.95;;
85131;SDS011;75493;51.772;19.464;2024-02-15T06:22:06;38.22;;;20.70;;
85131;SDS011;75493;51.772;19.464;2024-02-15T06:24:33;39.53;;;20.00;;
85131;SDS011;75493;51.772;19.464;2024-02-15T06:26:59;38.30;;;21.08;;
85131;SDS011;75493;51.772;19.464;2024-02-15T06:29:26;39.60;;;20.27;;
85131;SDS011;75493;51.772;19.464;2024-02-15T06:32:11;33.72;;;18.13;;
85131;SDS011;75493;51.772;19.464;2024-02-15T06:34:55;31.10;;;16.90;;
85131;SDS011;75493;51.772;19.464;2024-02-15T06:37:40;30.90;;;17.88;;
85131;SDS011;75493;51.772;19.464;2024-02-15T06:40:24;28.58;;;16.73;;
85131;SDS011;75493;51.772;19.464;2024-02-15T06:42:50;29.92;;;16.52;;
85131;SDS011;75493;51.772;19.464;2024-02-15T06:45:16;31.45;;;17.52;;
85131;SDS011;75493;51.772;19.464;2024-02-15T06:47:45;28.25;;;16.00;;
85131;SDS011;75493;51.772;19.464;2024-02-15T06:50:12;31.88;;;17.90;;
85131;SDS011;75493;51.772;19.464;2024-02-15T06:52:38;30.45;;;16.55;;
85131;SDS011;75493;51.772;19.464;2024-02-15T06:55:06;29.85;;;16.08;;
85131;SDS011;75493;51.772;19.464;2024-02-15T06:57:35;30.30;;;17.15;;
85131;SDS011;75493;51.772;19.464;2024-02-15T07:00:02;29.63;;;16.60;;
85131;SDS011;75493;51.772;19.464;2024-02-15T07:04:57;31.50;;;17.60;;
85131;SDS011;75493;51.772;19.464;2024-02-15T07:07:23;30.30;;;16.73;;
85131;SDS011;75493;51.772;19.464;2024-02-15T07:09:50;30.40;;;16.70;;
85131;SDS011;75493;51.772;19.464;2024-02-15T07:12:16;34.03;;;18.00;;
85131;SDS011;75493;51.772;19.464;2024-02-15T07:14:43;33.55;;;17.30;;
85131;SDS011;75493;51.772;19.464;2024-02-15T07:17:11;35.33;;;18.00;;
85131;SDS011;75493;51.772;19.464;2024-02-15T07:19:37;32.65;;;17.63;;
85131;SDS011;75493;51.772;19.464;2024-02-15T07:22:06;31.98;;;17.25;;
85131;SDS011;75493;51.772;19.464;2024-02-15T07:24:33;31.38;;;16.67;;
85131;SDS011;75493;51.772;19.464;2024-02-15T07:27:03;33.63;;;17.98;;
85131;SDS011;75493;51.772;19.464;2024-02-15T07:29:29;33.42;;;18.10;;
85131;SDS011;75493;51.772;19.464;2024-02-15T07:31:57;37.20;;;18.38;;
85131;SDS011;75493;51.772;19.464;2024-02-15T07:34:24;31.17;;;17.50;;
85131;SDS011;75493;51.772;19.464;2024-02-15T07:36:51;29.25;;;17.05;;
85131;SDS011;75493;51.772;19.464;2024-02-15T07:39:17;33.00;;;17.25;;
85131;SDS011;75493;51.772;19.464;2024-02-15T07:41:59;34.13;;;16.95;;
85131;SDS011;75493;51.772;19.464;2024-02-15T07:44:25;31.52;;;16.20;;
85131;SDS011;75493;51.772;19.464;2024-02-15T07:46:54;29.05;;;15.93;;
85131;SDS011;75493;51.772;19.464;2024-02-15T07:49:20;32.65;;;16.63;;
85131;SDS011;75493;51.772;19.464;2024-02-15T07:51:47;33.45;;;17.55;;
85131;SDS011;75493;51.772;19.464;2024-02-15T07:54:18;27.67;;;15.57;;
85131;SDS011;75493;51.772;19.464;2024-02-15T07:56:46;26.70;;;15.48;;
85131;SDS011;75493;51.772;19.464;2024-02-15T07:59:13;28.58;;;15.55;;
85131;SDS011;75493;51.772;19.464;2024-02-15T08:01:42;29.13;;;15.98;;
85131;SDS011;75493;51.772;19.464;2024-02-15T08:04:10;25.05;;;14.38;;
85131;SDS011;75493;51.772;19.464;2024-02-15T08:06:36;31.88;;;15.68;;
85131;SDS011;75493;51.772;19.464;2024-02-15T08:09:03;30.75;;;14.82;;
85131;SDS011;75493;51.772;19.464;2024-02-15T08:11:38;26.98;;;14.30;;
85131;SDS011;75493;51.772;19.464;2024-02-15T08:14:05;28.30;;;15.20;;
85131;SDS011;75493;51.772;19.464;2024-02-15T08:16:33;28.55;;;14.52;;
85131;SDS011;75493;51.772;19.464;2024-02-15T08:18:59;23.58;;;13.73;;
85131;SDS011;75493;51.772;19.464;2024-02-15T08:21:26;25.23;;;14.00;;
85131;SDS011;75493;51.772;19.464;2024-02-15T08:23:58;24.27;;;13.65;;
85131;SDS011;75493;51.772;19.464;2024-02-15T08:26:24;26.52;;;14.18;;
85131;SDS011;75493;51.772;19.464;2024-02-15T08:28:50;27.05;;;14.40;;
85131;SDS011;75493;51.772;19.464;2024-02-15T08:31:17;28.15;;;13.30;;
85131;SDS011;75493;51.772;19.464;2024-02-15T08:33:44;26.23;;;13.85;;
85131;SDS011;75493;51.772;19.464;2024-02-15T08:36:10;24.95;;;14.45;;
85131;SDS011;75493;51.772;19.464;2024-02-15T08:38:38;27.75;;;15.63;;
85131;SDS011;75493;51.772;19.464;2024-02-15T08:41:04;22.10;;;13.02;;
85131;SDS011;75493;51.772;19.464;2024-02-15T08:43:32;23.52;;;12.95;;
85131;SDS011;75493;51.772;19.464;2024-02-15T08:45:58;25.63;;;13.32;;
85131;SDS011;75493;51.772;19.464;2024-02-15T08:48:24;25.20;;;13.93;;
85131;SDS011;75493;51.772;19.464;2024-02-15T08:50:53;23.63;;;13.68;;
85131;SDS011;75493;51.772;19.464;2024-02-15T08:53:19;26.20;;;14.65;;
85131;SDS011;75493;51.772;19.464;2024-02-15T08:55:46;24.20;;;14.05;;
85131;SDS011;75493;51.772;19.464;2024-02-15T08:58:12;25.02;;;14.32;;
85131;SDS011;75493;51.772;19.464;2024-02-15T09:00:38;24.85;;;13.63;;
85131;SDS011;75493;51.772;19.464;2024-02-15T09:03:09;20.73;;;12.27;;
85131;SDS011;75493;51.772;19.464;2024-02-15T09:05:35;26.77;;;14.20;;
85131;SDS011;75493;51.772;19.464;2024-02-15T09:08:01;25.23;;;13.07;;
85131;SDS011;75493;51.772;19.464;2024-02-15T09:10:29;24.02;;;13.45;;
85131;SDS011;75493;51.772;19.464;2024-02-15T09:12:55;25.08;;;12.98;;
85131;SDS011;75493;51.772;19.464;2024-02-15T09:15:22;24.05;;;12.85;;
85131;SDS011;75493;51.772;19.464;2024-02-15T09:17:48;22.17;;;12.65;;
85131;SDS011;75493;51.772;19.464;2024-02-15T09:20:14;24.00;;;12.25;;
85131;SDS011;75493;51.772;19.464;2024-02-15T09:22:52;22.90;;;13.57;;
85131;SDS011;75493;51.772;19.464;2024-02-15T09:25:19;22.92;;;12.35;;
85131;SDS011;75493;51.772;19.464;2024-02-15T09:27:48;21.73;;;12.93;;
85131;SDS011;75493;51.772;19.464;2024-02-15T09:30:14;25.50;;;12.82;;
85131;SDS011;75493;51.772;19.464;2024-02-15T09:32:41;22.38;;;12.88;;
85131;SDS011;75493;51.772;19.464;2024-02-15T09:35:07;24.17;;;12.90;;
85131;SDS011;75493;51.772;19.464;2024-02-15T09:37:34;22.77;;;12.52;;
85131;SDS011;75493;51.772;19.464;2024-02-15T09:40:00;21.40;;;11.50;;
85131;SDS011;75493;51.772;19.464;2024-02-15T09:44:59;20.20;;;12.00;;
85131;SDS011;75493;51.772;19.464;2024-02-15T09:47:26;21.80;;;12.80;;
85131;SDS011;75493;51.772;19.464;2024-02-15T09:49:54;21.95;;;12.27;;
85131;SDS011;75493;51.772;19.464;2024-02-15T09:52:21;22.23;;;11.60;;
85131;SDS011;75493;51.772;19.464;2024-02-15T09:54:49;19.60;;;11.57;;
85131;SDS011;75493;51.772;19.464;2024-02-15T09:57:17;20.67;;;11.55;;
85131;SDS011;75493;51.772;19.464;2024-02-15T09:59:45;20.00;;;12.43;;
85131;SDS011;75493;51.772;19.464;2024-02-15T10:02:11;19.25;;;11.13;;
85131;SDS011;75493;51.772;19.464;2024-02-15T10:04:41;21.88;;;13.10;;
85131;SDS011;75493;51.772;19.464;2024-02-15T10:07:08;20.33;;;11.18;;
85131;SDS011;75493;51.772;19.464;2024-02-15T10:09:34;15.80;;;11.90;;
85131;SDS011;75493;51.772;19.464;2024-02-15T10:12:04;20.15;;;11.25;;
85131;SDS011;75493;51.772;19.464;2024-02-15T10:14:34;18.35;;;11.10;;
85131;SDS011;75493;51.772;19.464;2024-02-15T10:17:05;19.95;;;11.10;;
85131;SDS011;75493;51.772;19.464;2024-02-15T10:19:34;19.02;;;11.30;;
85131;SDS011;75493;51.772;19.464;2024-02-15T10:22:07;18.88;;;10.55;;
85131;SDS011;75493;51.772;19.464;2024-02-15T10:24:33;22.95;;;11.15;;
85131;SDS011;75493;51.772;19.464;2024-02-15T10:27:00;18.58;;;10.27;;
85131;SDS011;75493;51.772;19.464;2024-02-15T10:29:29;19.00;;;11.50;;
85131;SDS011;75493;51.772;19.464;2024-02-15T10:31:56;20.20;;;11.77;;
85131;SDS011;75493;51.772;19.464;2024-02-15T10:34:23;22.48;;;9.73;;
85131;SDS011;75493;51.772;19.464;2024-02-15T10:36:52;18.27;;;9.98;;
85131;SDS011;75493;51.772;19.464;2024-02-15T10:39:19;13.20;;;9.05;;
85131;SDS011;75493;51.772;19.464;2024-02-15T10:41:49;20.30;;;10.27;;
85131;SDS011;75493;51.772;19.464;2024-02-15T10:44:18;17.05;;;9.70;;
85131;SDS011;75493;51.772;19.464;2024-02-15T10:46:45;14.55;;;8.93;;
85131;SDS011;75493;51.772;19.464;2024-02-15T10:49:21;15.70;;;9.52;;
85131;SDS011;75493;51.772;19.464;2024-02-15T10:51:56;14.80;;;8.35;;
85131;SDS011;75493;51.772;19.464;2024-02-15T10:57:04;13.60;;;8.70;;
85131;SDS011;75493;51.772;19.464;2024-02-15T10:59:37;11.23;;;7.93;;
85131;SDS011;75493;51.772;19.464;2024-02-15T11:02:50;11.88;;;7.32;;
85131;SDS011;75493;51.772;19.464;2024-02-15T11:04:55;13.70;;;8.65;;
85131;SDS011;75493;51.772;19.464;2024-02-15T11:07:27;12.57;;;8.02;;
85131;SDS011;75493;51.772;19.464;2024-02-15T11:09:53;14.70;;;8.50;;
85131;SDS011;75493;51.772;19.464;2024-02-15T11:12:21;12.38;;;7.60;;
85131;SDS011;75493;51.772;19.464;2024-02-15T11:14:48;13.38;;;8.30;;
85131;SDS011;75493;51.772;19.464;2024-02-15T11:20:02;13.82;;;8.57;;
85131;SDS011;75493;51.772;19.464;2024-02-15T11:22:33;11.32;;;7.30;;
85131;SDS011;75493;51.772;19.464;2024-02-15T11:25:02;11.93;;;6.82;;
85131;SDS011;75493;51.772;19.464;2024-02-15T11:27:33;12.85;;;7.40;;
85131;SDS011;75493;51.772;19.464;2024-02-15T11:30:02;13.32;;;7.53;;
85131;SDS011;75493;51.772;19.464;2024-02-15T11:35:09;11.00;;;6.93;;
85131;SDS011;75493;51.772;19.464;2024-02-15T11:40:15;13.82;;;7.35;;
85131;SDS011;75493;51.772;19.464;2024-02-15T11:42:42;10.80;;;6.95;;
85131;SDS011;75493;51.772;19.464;2024-02-15T11:45:08;10.70;;;6.97;;
85131;SDS011;75493;51.772;19.464;2024-02-15T11:47:36;9.68;;;6.30;;
85131;SDS011;75493;51.772;19.464;2024-02-15T11:50:04;9.55;;;6.47;;
85131;SDS011;75493;51.772;19.464;2024-02-15T11:52:30;12.93;;;6.15;;
85131;SDS011;75493;51.772;19.464;2024-02-15T11:55:08;7.15;;;5.50;;
85131;SDS011;75493;51.772;19.464;2024-02-15T11:57:40;10.05;;;6.40;;
85131;SDS011;75493;51.772;19.464;2024-02-15T12:00:21;12.48;;;5.75;;
85131;SDS011;75493;51.772;19.464;2024-02-15T12:03:06;9.85;;;6.35;;
85131;SDS011;75493;51.772;19.464;2024-02-15T12:05:50;9.95;;;6.10;;
85131;SDS011;75493;51.772;19.464;2024-02-15T12:08:35;10.07;;;6.18;;
85131;SDS011;75493;51.772;19.464;2024-02-15T12:11:20;10.10;;;6.35;;
85131;SDS011;75493;51.772;19.464;2024-02-15T12:14:05;10.43;;;5.57;;
85131;SDS011;75493;51.772;19.464;2024-02-15T12:19:52;9.30;;;5.50;;
85131;SDS011;75493;51.772;19.464;2024-02-15T12:24:53;7.60;;;4.30;;
85131;SDS011;75493;51.772;19.464;2024-02-15T12:27:19;9.00;;;4.30;;
85131;SDS011;75493;51.772;19.464;2024-02-15T12:29:45;8.13;;;4.18;;
85131;SDS011;75493;51.772;19.464;2024-02-15T12:32:19;5.78;;;4.20;;
85131;SDS011;75493;51.772;19.464;2024-02-15T12:34:45;7.32;;;4.10;;
85131;SDS011;75493;51.772;19.464;2024-02-15T12:37:12;7.50;;;5.00;;
85131;SDS011;75493;51.772;19.464;2024-02-15T12:39:38;6.72;;;3.50;;
85131;SDS011;75493;51.772;19.464;2024-02-15T12:42:06;6.40;;;3.38;;
85131;SDS011;75493;51.772;19.464;2024-02-15T12:44:34;6.75;;;3.30;;
85131;SDS011;75493;51.772;19.464;2024-02-15T12:47:00;5.13;;;3.60;;
85131;SDS011;75493;51.772;19.464;2024-02-15T12:49:28;6.25;;;3.72;;
85131;SDS011;75493;51.772;19.464;2024-02-15T12:54:44;9.90;;;4.13;;
85131;SDS011;75493;51.772;19.464;2024-02-15T12:57:10;6.15;;;3.63;;
85131;SDS011;75493;51.772;19.464;2024-02-15T12:59:38;5.78;;;3.75;;
85131;SDS011;75493;51.772;19.464;2024-02-15T13:02:05;7.47;;;3.58;;
85131;SDS011;75493;51.772;19.464;2024-02-15T13:04:31;5.32;;;3.55;;
85131;SDS011;75493;51.772;19.464;2024-02-15T13:06:57;6.22;;;3.63;;
85131;SDS011;75493;51.772;19.464;2024-02-15T13:09:22;8.07;;;4.45;;
85131;SDS011;75493;51.772;19.464;2024-02-15T13:11:49;6.35;;;3.40;;
85131;SDS011;75493;51.772;19.464;2024-02-15T13:14:15;8.60;;;4.00;;
85131;SDS011;75493;51.772;19.464;2024-02-15T13:16:42;6.97;;;3.55;;
85131;SDS011;75493;51.772;19.464;2024-02-15T13:19:14;8.65;;;4.15;;
85131;SDS011;75493;51.772;19.464;2024-02-15T13:21:39;8.48;;;4.25;;
85131;SDS011;75493;51.772;19.464;2024-02-15T13:24:05;7.93;;;4.32;;
85131;SDS011;75493;51.772;19.464;2024-02-15T13:26:31;7.30;;;4.10;;
85131;SDS011;75493;51.772;19.464;2024-02-15T13:28:59;8.15;;;4.38;;
85131;SDS011;75493;51.772;19.464;2024-02-15T13:31:25;8.40;;;4.10;;
85131;SDS011;75493;51.772;19.464;2024-02-15T13:33:52;7.07;;;4.13;;
85131;SDS011;75493;51.772;19.464;2024-02-15T13:36:18;8.70;;;4.43;;
85131;SDS011;75493;51.772;19.464;2024-02-15T13:38:45;7.55;;;3.88;;
85131;SDS011;75493;51.772;19.464;2024-02-15T13:41:12;5.15;;;3.63;;
85131;SDS011;75493;51.772;19.464;2024-02-15T13:43:38;6.18;;;2.92;;
85131;SDS011;75493;51.772;19.464;2024-02-15T13:46:06;6.00;;;3.70;;
85131;SDS011;75493;51.772;19.464;2024-02-15T13:48:32;6.60;;;3.50;;
85131;SDS011;75493;51.772;19.464;2024-02-15T13:50:58;6.00;;;2.85;;
85131;SDS011;75493;51.772;19.464;2024-02-15T13:53:24;7.53;;;3.88;;
85131;SDS011;75493;51.772;19.464;2024-02-15T13:55:50;4.85;;;3.13;;
85131;SDS011;75493;51.772;19.464;2024-02-15T13:58:17;4.60;;;2.72;;
85131;SDS011;75493;51.772;19.464;2024-02-15T14:00:43;5.03;;;3.00;;
85131;SDS011;75493;51.772;19.464;2024-02-15T14:03:10;7.13;;;3.42;;
85131;SDS011;75493;51.772;19.464;2024-02-15T14:05:36;6.25;;;3.35;;
85131;SDS011;75493;51.772;19.464;2024-02-15T14:08:04;5.75;;;3.95;;
85131;SDS011;75493;51.772;19.464;2024-02-15T14:10:31;6.10;;;3.65;;
85131;SDS011;75493;51.772;19.464;2024-02-15T14:12:59;6.00;;;3.30;;
85131;SDS011;75493;51.772;19.464;2024-02-15T14:15:30;6.68;;;3.63;;
85131;SDS011;75493;51.772;19.464;2024-02-15T14:17:59;6.18;;;3.67;;
85131;SDS011;75493;51.772;19.464;2024-02-15T14:20:26;7.55;;;4.15;;
85131;SDS011;75493;51.772;19.464;2024-02-15T14:22:53;7.18;;;4.18;;
85131;SDS011;75493;51.772;19.464;2024-02-15T14:25:22;7.30;;;4.30;;
85131;SDS011;75493;51.772;19.464;2024-02-15T14:27:48;9.82;;;5.10;;
85131;SDS011;75493;51.772;19.464;2024-02-15T14:30:14;8.68;;;4.50;;
85131;SDS011;75493;51.772;19.464;2024-02-15T14:32:58;9.25;;;4.72;;
85131;SDS011;75493;51.772;19.464;2024-02-15T14:35:25;8.32;;;4.85;;
85131;SDS011;75493;51.772;19.464;2024-02-15T14:37:51;7.28;;;4.57;;
85131;SDS011;75493;51.772;19.464;2024-02-15T14:40:17;9.10;;;4.70;;
85131;SDS011;75493;51.772;19.464;2024-02-15T14:42:43;10.07;;;5.28;;